createdAt,value
2018-04-10T00:01:02.330Z,10.15
2018-04-10T00:02:10.400Z,10.15
2018-04-10T00:03:18.469Z,10.06
2018-04-10T00:04:26.534Z,9.99
2018-04-10T00:05:34.609Z,10.00
2018-04-10T00:06:42.661Z,9.97
2018-04-10T00:07:50.712Z,9.87
2018-04-10T00:08:58.786Z,9.85
2018-04-10T00:10:06.843Z,9.88
2018-04-10T00:11:14.916Z,9.77
2018-04-10T00:12:22.975Z,9.72
2018-04-10T00:13:31.022Z,9.69
2018-04-10T00:14:39.104Z,9.64
2018-04-10T00:15:47.163Z,9.59
2018-04-10T00:16:55.225Z,9.49
2018-04-10T00:18:03.275Z,9.51
2018-04-10T00:19:11.332Z,9.54
2018-04-10T00:20:19.408Z,9.55
2018-04-10T00:21:27.477Z,9.66
2018-04-10T00:22:35.537Z,9.63
2018-04-10T00:23:43.596Z,9.63
2018-04-10T00:24:51.646Z,9.64
2018-04-10T00:25:59.734Z,9.67
2018-04-10T00:27:07.787Z,9.82
2018-04-10T00:28:15.863Z,9.70
2018-04-10T00:29:23.924Z,9.70
2018-04-10T00:30:31.989Z,9.73
2018-04-10T00:31:40.050Z,9.54
2018-04-10T00:32:48.105Z,9.55
2018-04-10T00:33:56.180Z,9.58
2018-04-10T00:35:04.244Z,9.58
2018-04-10T00:36:12.288Z,9.55
2018-04-10T00:37:20.360Z,9.51
2018-04-10T00:38:28.429Z,9.40
2018-04-10T00:39:36.494Z,9.37
2018-04-10T00:40:44.555Z,9.30
2018-04-10T00:41:52.623Z,9.39
2018-04-10T00:43:00.669Z,9.29
2018-04-10T00:44:08.738Z,9.31
2018-04-10T00:45:16.809Z,9.33
2018-04-10T00:46:24.867Z,9.31
2018-04-10T00:47:32.927Z,9.31
2018-04-10T00:48:40.969Z,9.27
2018-04-10T00:49:49.073Z,9.30
2018-04-10T00:50:57.133Z,9.24
2018-04-10T00:52:05.184Z,9.26
2018-04-10T00:53:13.252Z,9.13
2018-04-10T00:54:21.282Z,9.18
2018-04-10T00:55:29.364Z,9.08
2018-04-10T00:56:37.421Z,9.13
2018-04-10T00:57:45.494Z,8.95
2018-04-10T00:58:53.554Z,8.95
2018-04-10T01:00:01.600Z,8.97
2018-04-10T01:01:09.689Z,9.00
2018-04-10T01:02:17.747Z,8.93
2018-04-10T01:03:25.810Z,8.95
2018-04-10T01:04:33.875Z,8.96
2018-04-10T01:05:41.930Z,8.86
2018-04-10T01:06:49.996Z,8.92
2018-04-10T01:07:58.071Z,8.99
2018-04-10T01:09:06.120Z,9.03
2018-04-10T01:10:14.194Z,9.09
2018-04-10T01:11:22.248Z,9.02
2018-04-10T01:12:30.313Z,9.13
2018-04-10T01:13:38.360Z,8.99
2018-04-10T01:14:46.428Z,9.08
2018-04-10T01:15:54.492Z,9.09
2018-04-10T01:17:02.574Z,9.11
2018-04-10T01:18:10.618Z,9.09
2018-04-10T01:19:18.688Z,9.15
2018-04-10T01:20:26.747Z,9.18
2018-04-10T01:21:34.841Z,9.21
2018-04-10T01:22:42.880Z,9.27
2018-04-10T01:23:50.917Z,9.24
2018-04-10T01:24:58.997Z,9.30
2018-04-10T01:26:07.069Z,9.19
2018-04-10T01:27:15.137Z,9.33
2018-04-10T01:28:23.196Z,9.37
2018-04-10T01:29:31.226Z,9.40
2018-04-10T01:30:39.326Z,9.37
2018-04-10T01:31:47.379Z,9.45
2018-04-10T01:32:55.435Z,9.49
2018-04-10T01:34:03.497Z,9.55
2018-04-10T01:35:11.548Z,9.49
2018-04-10T01:36:19.631Z,9.51
2018-04-10T01:37:27.690Z,9.56
2018-04-10T01:38:35.759Z,9.63
2018-04-10T01:39:43.808Z,9.59
2018-04-10T01:40:51.863Z,9.84
2018-04-10T01:41:59.948Z,9.74
2018-04-10T01:43:08.004Z,9.73
2018-04-10T01:44:16.079Z,9.88
2018-04-10T01:45:24.135Z,9.91
2018-04-10T01:46:32.212Z,9.88
2018-04-10T01:47:40.267Z,9.94
2018-04-10T01:48:48.315Z,9.97
2018-04-10T01:49:56.394Z,10.13
2018-04-10T01:51:04.447Z,10.09
2018-04-10T01:52:12.508Z,10.10
2018-04-10T01:53:20.584Z,10.12
2018-04-10T01:54:28.641Z,10.12
2018-04-10T01:55:36.719Z,10.24
2018-04-10T01:56:44.771Z,10.23
2018-04-10T01:57:52.828Z,10.28
2018-04-10T01:59:00.871Z,10.13
2018-04-10T02:00:08.951Z,10.18
2018-04-10T02:01:17.022Z,10.18
2018-04-10T02:02:25.082Z,10.17
2018-04-10T02:03:33.139Z,10.17
2018-04-10T02:04:41.180Z,10.13
2018-04-10T02:05:49.269Z,10.15
2018-04-10T02:06:57.325Z,10.12
2018-04-10T02:08:05.416Z,10.13
2018-04-10T02:09:13.458Z,10.15
2018-04-10T02:10:21.502Z,10.12
2018-04-10T02:11:29.584Z,10.13
2018-04-10T02:12:37.646Z,10.07
2018-04-10T02:13:45.697Z,10.09
2018-04-10T02:14:53.767Z,10.09
2018-04-10T02:16:01.829Z,10.06
2018-04-10T02:17:09.904Z,10.09
2018-04-10T02:18:17.964Z,10.00
2018-04-10T02:19:26.029Z,9.91
2018-04-10T02:20:34.081Z,9.99
2018-04-10T02:21:42.145Z,9.90
2018-04-10T02:22:50.210Z,9.84
2018-04-10T02:23:58.311Z,9.84
2018-04-10T02:25:06.364Z,9.82
2018-04-10T02:26:14.406Z,9.76
2018-04-10T02:27:22.481Z,9.70
2018-04-10T02:28:30.508Z,9.69
2018-04-10T02:29:38.586Z,9.55
2018-04-10T02:30:46.666Z,9.55
2018-04-10T02:31:54.716Z,9.54
2018-04-10T02:33:02.774Z,9.45
2018-04-10T02:34:10.834Z,9.37
2018-04-10T02:35:18.918Z,9.22
2018-04-10T02:36:26.963Z,9.26
2018-04-10T02:37:35.028Z,9.29
2018-04-10T02:38:43.080Z,9.19
2018-04-10T02:39:51.136Z,9.16
2018-04-10T02:40:59.220Z,9.11
2018-04-10T02:42:07.272Z,9.09
2018-04-10T02:43:15.331Z,9.05
2018-04-10T02:44:23.406Z,9.00
2018-04-10T02:45:31.449Z,9.00
2018-04-10T02:46:39.517Z,8.95
2018-04-10T02:47:47.602Z,9.00
2018-04-10T02:48:55.661Z,9.00
2018-04-10T02:50:03.711Z,8.92
2018-04-10T02:51:11.755Z,8.86
2018-04-10T02:52:19.854Z,8.92
2018-04-10T02:53:27.910Z,8.79
2018-04-10T02:54:35.982Z,8.74
2018-04-10T02:55:44.033Z,8.74
2018-04-10T02:56:52.104Z,8.68
2018-04-10T02:58:00.152Z,8.72
2018-04-10T02:59:08.217Z,8.66
2018-04-10T03:00:16.273Z,8.60
2018-04-10T03:01:24.355Z,8.64
2018-04-10T03:02:32.398Z,8.57
2018-04-10T03:03:40.464Z,8.57
2018-04-10T03:04:48.535Z,8.42
2018-04-10T03:05:56.598Z,8.45
2018-04-10T03:07:04.663Z,8.42
2018-04-10T03:08:12.748Z,8.26
2018-04-10T03:09:20.769Z,8.26
2018-04-10T03:10:28.846Z,8.20
2018-04-10T03:11:36.894Z,8.17
2018-04-10T03:12:44.956Z,8.13
2018-04-10T03:13:53.029Z,8.20
2018-04-10T03:15:01.075Z,7.99
2018-04-10T03:16:09.142Z,7.98
2018-04-10T03:17:17.221Z,7.98
2018-04-10T03:18:25.277Z,7.87
2018-04-10T03:19:33.329Z,7.84
2018-04-10T03:20:41.387Z,7.83
2018-04-10T03:21:49.462Z,7.84
2018-04-10T03:22:57.525Z,7.83
2018-04-10T03:24:05.591Z,7.85
2018-04-10T03:25:13.652Z,7.80
2018-04-10T03:26:21.692Z,7.67
2018-04-10T03:27:29.771Z,7.77
2018-04-10T03:28:37.827Z,7.88
2018-04-10T03:29:45.896Z,7.85
2018-04-10T03:30:53.963Z,7.75
2018-04-10T03:32:02.049Z,7.81
2018-04-10T03:33:10.076Z,7.67
2018-04-10T03:34:18.145Z,7.67
2018-04-10T03:35:26.206Z,7.67
2018-04-10T03:36:34.274Z,7.75
2018-04-10T03:37:42.337Z,7.67
2018-04-10T03:38:50.404Z,7.72
2018-04-10T03:39:58.457Z,7.69
2018-04-10T03:41:06.525Z,7.77
2018-04-10T03:42:14.569Z,7.80
2018-04-10T03:43:22.630Z,7.78
2018-04-10T03:44:30.683Z,7.81
2018-04-10T03:45:38.783Z,7.85
2018-04-10T03:46:46.816Z,7.88
2018-04-10T03:47:54.913Z,7.87
2018-04-10T03:49:02.947Z,7.85
2018-04-10T03:50:10.982Z,7.93
2018-04-10T03:51:19.072Z,7.90
2018-04-10T03:52:27.138Z,7.99
2018-04-10T03:53:35.201Z,8.09
2018-04-10T03:54:43.261Z,8.18
2018-04-10T03:55:51.287Z,8.35
2018-04-10T03:56:59.451Z,8.41
2018-04-10T03:58:07.429Z,8.42
2018-04-10T03:59:15.491Z,8.49
2018-04-10T04:00:23.557Z,8.42
2018-04-10T04:01:31.591Z,8.56
2018-04-10T04:02:39.693Z,8.59
2018-04-10T04:03:47.747Z,8.68
2018-04-10T04:04:55.809Z,8.77
2018-04-10T04:06:03.873Z,8.81
2018-04-10T04:07:11.984Z,8.82
2018-04-10T04:08:20.002Z,8.78
2018-04-10T04:09:28.061Z,8.92
2018-04-10T04:10:36.114Z,8.89
2018-04-10T04:11:44.190Z,8.92
2018-04-10T04:12:52.453Z,8.84
2018-04-10T04:14:00.290Z,8.95
2018-04-10T04:15:08.354Z,8.96
2018-04-10T04:16:16.431Z,8.90
2018-04-10T04:17:24.479Z,8.95
2018-04-10T04:18:32.564Z,8.79
2018-04-10T04:19:40.740Z,8.81
2018-04-10T04:20:48.678Z,8.89
2018-04-10T04:21:56.731Z,8.86
2018-04-10T04:23:04.785Z,8.99
2018-04-10T04:24:12.853Z,8.92
2018-04-10T04:25:20.909Z,9.09
2018-04-10T04:26:28.981Z,9.03
2018-04-10T04:27:37.051Z,9.08
2018-04-10T04:28:45.107Z,8.93
2018-04-10T04:29:53.266Z,8.97
2018-04-10T04:31:01.226Z,9.00
2018-04-10T04:32:09.292Z,8.99
2018-04-10T04:33:17.363Z,9.03
2018-04-10T04:34:25.425Z,9.02
2018-04-10T04:35:33.472Z,9.03
2018-04-10T04:36:41.527Z,8.93
2018-04-10T04:37:49.615Z,8.93
2018-04-10T04:38:57.662Z,8.93
2018-04-10T04:40:05.728Z,8.89
2018-04-10T04:41:13.792Z,8.87
2018-04-10T04:42:22.400Z,8.90
2018-04-10T04:43:30.110Z,8.93
2018-04-10T04:44:37.982Z,8.84
2018-04-10T04:45:46.053Z,8.92
2018-04-10T04:46:54.105Z,8.99
2018-04-10T04:48:02.165Z,8.86
2018-04-10T04:49:10.230Z,8.84
2018-04-10T04:50:18.285Z,8.92
2018-04-10T04:51:26.581Z,8.95
2018-04-10T04:52:34.428Z,8.82
2018-04-10T04:53:42.486Z,8.82
2018-04-10T04:54:50.551Z,8.74
2018-04-10T04:55:58.596Z,8.77
2018-04-10T04:57:06.679Z,8.81
2018-04-10T04:58:14.725Z,8.82
2018-04-10T04:59:22.798Z,8.89
2018-04-10T05:00:31.224Z,8.82
2018-04-10T05:01:38.916Z,8.82
2018-04-10T05:02:46.980Z,8.78
2018-04-10T05:03:55.054Z,8.79
2018-04-10T05:05:03.119Z,8.82
2018-04-10T05:06:11.149Z,8.78
2018-04-10T05:07:19.230Z,8.82
2018-04-10T05:08:27.286Z,8.84
2018-04-10T05:09:35.358Z,8.82
2018-04-10T05:10:43.420Z,8.79
2018-04-10T05:11:51.859Z,8.74
2018-04-10T05:12:59.551Z,8.77
2018-04-10T05:14:07.616Z,8.69
2018-04-10T05:15:15.673Z,8.64
2018-04-10T05:16:23.742Z,8.59
2018-04-10T05:17:31.793Z,8.61
2018-04-10T05:18:39.871Z,8.60
2018-04-10T05:19:47.915Z,8.54
2018-04-10T05:20:55.986Z,8.50
2018-04-10T05:22:04.051Z,8.49
2018-04-10T05:23:12.115Z,8.39
2018-04-10T05:24:20.179Z,8.56
2018-04-10T05:25:28.231Z,8.57
2018-04-10T05:26:36.298Z,8.46
2018-04-10T05:27:44.356Z,8.39
2018-04-10T05:28:52.424Z,8.46
2018-04-10T05:30:00.494Z,8.54
2018-04-10T05:31:08.549Z,8.60
2018-04-10T05:32:16.615Z,8.61
2018-04-10T05:33:24.672Z,8.56
2018-04-10T05:34:32.753Z,8.61
2018-04-10T05:35:40.841Z,8.63
2018-04-10T05:36:48.867Z,8.66
2018-04-10T05:37:56.933Z,8.78
2018-04-10T05:39:04.991Z,8.75
2018-04-10T05:40:13.073Z,8.77
2018-04-10T05:41:21.089Z,8.82
2018-04-10T05:42:29.173Z,8.86
2018-04-10T05:43:37.250Z,8.92
2018-04-10T05:44:45.321Z,8.95
2018-04-10T05:45:53.369Z,8.96
2018-04-10T05:47:01.448Z,9.02
2018-04-10T05:48:09.533Z,8.97
2018-04-10T05:49:17.574Z,9.11
2018-04-10T05:50:25.631Z,9.12
2018-04-10T05:51:33.699Z,9.12
2018-04-10T05:52:41.725Z,9.29
2018-04-10T05:53:49.810Z,9.24
2018-04-10T05:54:57.857Z,9.33
2018-04-10T05:56:05.931Z,9.45
2018-04-10T05:57:13.999Z,9.54
2018-04-10T05:58:22.072Z,9.58
2018-04-10T05:59:30.129Z,9.56
2018-04-10T06:00:38.204Z,9.67
2018-04-10T06:01:46.262Z,9.87
2018-04-10T06:02:54.314Z,10.00
2018-04-10T06:04:02.393Z,10.07
2018-04-10T06:05:10.449Z,10.25
2018-04-10T06:06:18.520Z,10.38
2018-04-10T06:07:26.569Z,10.41
2018-04-10T06:08:34.637Z,10.41
2018-04-10T06:09:42.705Z,10.57
2018-04-10T06:10:50.775Z,10.61
2018-04-10T06:11:58.820Z,10.62
2018-04-10T06:13:06.903Z,10.69
2018-04-10T06:14:14.960Z,10.84
2018-04-10T06:15:23.024Z,10.84
2018-04-10T06:16:31.064Z,11.05
2018-04-10T06:17:39.150Z,11.05
2018-04-10T06:18:47.207Z,11.13
2018-04-10T06:19:55.275Z,11.27
2018-04-10T06:21:03.347Z,11.40
2018-04-10T06:22:11.381Z,11.48
2018-04-10T06:23:19.471Z,11.40
2018-04-10T06:24:27.532Z,11.56
2018-04-10T06:25:35.606Z,11.59
2018-04-10T06:26:43.670Z,11.65
2018-04-10T06:27:51.710Z,11.81
2018-04-10T06:28:59.801Z,11.95
2018-04-10T06:30:07.856Z,12.05
2018-04-10T06:31:15.934Z,12.11
2018-04-10T06:32:23.982Z,12.21
2018-04-10T06:33:32.059Z,12.29
2018-04-10T06:34:40.122Z,12.28
2018-04-10T06:35:48.185Z,12.37
2018-04-10T06:36:56.258Z,12.43
2018-04-10T06:38:04.319Z,12.44
2018-04-10T06:39:12.386Z,12.54
2018-04-10T06:40:20.457Z,12.43
2018-04-10T06:41:28.519Z,12.57
2018-04-10T06:42:36.582Z,12.53
2018-04-10T06:43:44.653Z,12.44
2018-04-10T06:44:52.702Z,12.58
2018-04-10T06:46:00.776Z,12.61
2018-04-10T06:47:08.848Z,12.61
2018-04-10T06:48:16.904Z,12.58
2018-04-10T06:49:24.968Z,12.69
2018-04-10T06:50:33.030Z,12.69
2018-04-10T06:51:41.088Z,12.81
2018-04-10T06:52:49.178Z,12.87
2018-04-10T06:53:57.241Z,13.02
2018-04-10T06:55:05.306Z,13.02
2018-04-10T06:56:13.389Z,13.13
2018-04-10T06:57:21.426Z,13.16
2018-04-10T06:58:29.513Z,13.26
2018-04-10T06:59:37.597Z,13.45
2018-04-10T07:00:45.641Z,13.54
2018-04-10T07:01:53.700Z,13.57
2018-04-10T07:03:01.794Z,13.62
2018-04-10T07:04:09.844Z,13.75
2018-04-10T07:05:17.930Z,13.87
2018-04-10T07:06:25.976Z,13.93
2018-04-10T07:07:34.056Z,13.85
2018-04-10T07:08:42.110Z,13.93
2018-04-10T07:09:50.168Z,14.00
2018-04-10T07:10:58.242Z,14.00
2018-04-10T07:12:06.312Z,14.00
2018-04-10T07:13:14.432Z,13.97
2018-04-10T07:14:22.452Z,13.89
2018-04-10T07:15:30.514Z,13.62
2018-04-10T07:16:38.571Z,13.55
2018-04-10T07:17:46.653Z,13.73
2018-04-10T07:18:54.701Z,13.73
2018-04-10T07:20:02.809Z,13.73
2018-04-10T07:21:10.827Z,13.80
2018-04-10T07:22:18.904Z,13.87
2018-04-10T07:23:26.981Z,14.12
2018-04-10T07:24:35.064Z,14.15
2018-04-10T07:25:43.126Z,14.31
2018-04-10T07:26:51.162Z,14.34
2018-04-10T07:27:59.255Z,14.44
2018-04-10T07:29:07.318Z,14.45
2018-04-10T07:30:15.402Z,14.53
2018-04-10T07:31:23.457Z,14.77
2018-04-10T07:32:31.503Z,14.82
2018-04-10T07:33:39.600Z,14.87
2018-04-10T07:34:47.664Z,14.87
2018-04-10T07:35:55.735Z,14.89
2018-04-10T07:37:03.793Z,14.51
2018-04-10T07:38:11.851Z,14.53
2018-04-10T07:39:19.935Z,14.70
2018-04-10T07:40:28.006Z,14.67
2018-04-10T07:41:36.077Z,14.89
2018-04-10T07:42:44.145Z,14.86
2018-04-10T07:43:52.213Z,14.97
2018-04-10T07:45:00.298Z,14.85
2018-04-10T07:46:08.367Z,14.79
2018-04-10T07:47:16.411Z,14.85
2018-04-10T07:48:24.490Z,15.00
2018-04-10T07:49:32.546Z,14.93
2018-04-10T07:50:40.629Z,15.14
2018-04-10T07:51:48.692Z,15.36
2018-04-10T07:52:56.756Z,15.50
2018-04-10T07:54:04.835Z,15.35
2018-04-10T07:55:12.900Z,15.63
2018-04-10T07:56:20.948Z,15.85
2018-04-10T07:57:29.040Z,15.87
2018-04-10T07:58:37.167Z,15.81
2018-04-10T07:59:45.180Z,15.85
2018-04-10T08:00:53.252Z,15.51
2018-04-10T08:02:01.304Z,15.35
2018-04-10T08:03:09.392Z,15.35
2018-04-10T08:04:17.459Z,15.36
2018-04-10T08:05:25.527Z,15.50
2018-04-10T08:06:33.604Z,15.70
2018-04-10T08:07:41.648Z,15.96
2018-04-10T08:08:49.750Z,16.10
2018-04-10T08:09:57.830Z,16.18
2018-04-10T08:11:05.891Z,16.18
2018-04-10T08:12:13.964Z,16.26
2018-04-10T08:13:22.037Z,16.24
2018-04-10T08:14:30.108Z,16.39
2018-04-10T08:15:38.193Z,16.39
2018-04-10T08:16:46.259Z,16.34
2018-04-10T08:17:54.304Z,16.36
2018-04-10T08:19:02.375Z,16.29
2018-04-10T08:20:10.447Z,16.34
2018-04-10T08:21:18.522Z,16.43
2018-04-10T08:22:26.601Z,16.49
2018-04-10T08:23:34.670Z,16.55
2018-04-10T08:24:42.747Z,16.46
2018-04-10T08:25:50.807Z,16.41
2018-04-10T08:26:58.884Z,16.47
2018-04-10T08:28:06.948Z,16.41
2018-04-10T08:29:15.013Z,16.28
2018-04-10T08:30:23.090Z,16.28
2018-04-10T08:31:31.130Z,16.24
2018-04-10T08:32:39.240Z,16.39
2018-04-10T08:33:47.297Z,16.44
2018-04-10T08:34:55.375Z,16.37
2018-04-10T08:36:03.443Z,16.21
2018-04-10T08:37:11.513Z,16.57
2018-04-10T08:38:19.594Z,16.65
2018-04-10T08:39:27.669Z,16.68
2018-04-10T08:40:35.740Z,16.64
2018-04-10T08:41:43.812Z,16.98
2018-04-10T08:42:51.871Z,16.92
2018-04-10T08:43:59.944Z,17.28
2018-04-10T08:45:08.121Z,17.28
2018-04-10T08:46:16.098Z,17.22
2018-04-10T08:47:24.178Z,17.42
2018-04-10T08:48:32.239Z,17.09
2018-04-10T08:49:40.324Z,17.10
2018-04-10T08:50:48.391Z,16.80
2018-04-10T08:51:56.444Z,16.69
2018-04-10T08:53:04.532Z,16.66
2018-04-10T08:54:12.598Z,16.62
2018-04-10T08:55:20.675Z,16.36
2018-04-10T08:56:28.743Z,16.43
2018-04-10T08:57:36.815Z,16.43
2018-04-10T08:58:44.885Z,16.09
2018-04-10T08:59:52.972Z,16.00
2018-04-10T09:01:01.003Z,15.94
2018-04-10T09:02:09.095Z,15.94
2018-04-10T09:03:17.176Z,15.96
2018-04-10T09:04:25.240Z,15.99
2018-04-10T09:05:33.305Z,16.02
2018-04-10T09:06:41.350Z,16.21
2018-04-10T09:07:49.454Z,16.09
2018-04-10T09:08:57.514Z,16.17
2018-04-10T09:10:05.584Z,16.21
2018-04-10T09:11:13.656Z,16.29
2018-04-10T09:12:21.713Z,16.25
2018-04-10T09:13:29.800Z,16.32
2018-04-10T09:14:37.872Z,16.41
2018-04-10T09:15:45.932Z,16.46
2018-04-10T09:16:53.993Z,16.69
2018-04-10T09:18:02.076Z,16.94
2018-04-10T09:19:10.136Z,16.87
2018-04-10T09:20:18.209Z,16.86
2018-04-10T09:21:26.274Z,16.92
2018-04-10T09:22:34.352Z,16.80
2018-04-10T09:23:42.454Z,16.80
2018-04-10T09:24:50.485Z,16.49
2018-04-10T09:25:58.557Z,16.39
2018-04-10T09:27:06.626Z,16.34
2018-04-10T09:28:14.697Z,16.25
2018-04-10T09:29:22.769Z,16.31
2018-04-10T09:30:30.816Z,16.26
2018-04-10T09:31:38.902Z,16.41
2018-04-10T09:32:46.974Z,16.39
2018-04-10T09:33:55.030Z,16.58
2018-04-10T09:35:03.102Z,16.72
2018-04-10T09:36:11.146Z,16.84
2018-04-10T09:37:19.241Z,17.27
2018-04-10T09:38:27.322Z,17.46
2018-04-10T09:39:35.387Z,17.60
2018-04-10T09:40:43.448Z,17.69
2018-04-10T09:41:51.500Z,17.72
2018-04-10T09:42:59.589Z,17.82
2018-04-10T09:44:07.658Z,18.03
2018-04-10T09:45:15.724Z,18.02
2018-04-10T09:46:23.810Z,18.12
2018-04-10T09:47:31.859Z,17.75
2018-04-10T09:48:39.948Z,17.72
2018-04-10T09:49:47.999Z,17.88
2018-04-10T09:50:56.096Z,18.03
2018-04-10T09:52:04.137Z,18.06
2018-04-10T09:53:12.202Z,18.09
2018-04-10T09:54:20.289Z,18.05
2018-04-10T09:55:28.375Z,17.95
2018-04-10T09:56:36.432Z,17.87
2018-04-10T09:57:44.488Z,17.78
2018-04-10T09:58:52.570Z,17.69
2018-04-10T10:00:00.634Z,17.71
2018-04-10T10:01:08.698Z,17.72
2018-04-10T10:02:16.766Z,17.80
2018-04-10T10:03:24.851Z,18.00
2018-04-10T10:04:32.914Z,18.16
2018-04-10T10:05:40.956Z,18.23
2018-04-10T10:06:49.050Z,18.43
2018-04-10T10:07:57.145Z,18.60
2018-04-10T10:09:05.187Z,18.63
2018-04-10T10:10:13.259Z,18.78
2018-04-10T10:11:21.307Z,18.79
2018-04-10T10:12:29.423Z,18.79
2018-04-10T10:13:37.464Z,18.68
2018-04-10T10:14:45.551Z,18.74
2018-04-10T10:15:53.592Z,18.73
2018-04-10T10:17:01.659Z,18.68
2018-04-10T10:18:09.746Z,18.78
2018-04-10T10:19:17.829Z,18.81
2018-04-10T10:20:25.885Z,18.83
2018-04-10T10:21:33.955Z,18.82
2018-04-10T10:22:42.120Z,18.83
2018-04-10T10:23:50.107Z,19.01
2018-04-10T10:24:58.166Z,19.30
2018-04-10T10:26:06.235Z,19.38
2018-04-10T10:27:14.303Z,19.59
2018-04-10T10:28:22.386Z,19.57
2018-04-10T10:29:30.449Z,19.70
2018-04-10T10:30:38.536Z,19.74
2018-04-10T10:31:46.592Z,19.90
2018-04-10T10:32:54.659Z,20.00
2018-04-10T10:34:02.760Z,20.10
2018-04-10T10:35:10.783Z,19.99
2018-04-10T10:36:18.860Z,20.03
2018-04-10T10:37:26.931Z,19.66
2018-04-10T10:38:35.013Z,19.70
2018-04-10T10:39:43.126Z,19.75
2018-04-10T10:40:51.126Z,19.87
2018-04-10T10:41:59.213Z,19.93
2018-04-10T10:43:07.284Z,19.89
2018-04-10T10:44:15.346Z,19.97
2018-04-10T10:45:23.415Z,19.72
2018-04-10T10:46:31.476Z,19.63
2018-04-10T10:47:39.562Z,19.35
2018-04-10T10:48:47.639Z,19.49
2018-04-10T10:49:55.705Z,19.74
2018-04-10T10:51:03.807Z,19.71
2018-04-10T10:52:11.829Z,19.62
2018-04-10T10:53:19.901Z,19.57
2018-04-10T10:54:27.980Z,19.29
2018-04-10T10:55:36.064Z,19.29
2018-04-10T10:56:44.131Z,19.37
2018-04-10T10:57:52.200Z,19.44
2018-04-10T10:59:00.267Z,19.47
2018-04-10T11:00:08.346Z,19.64
2018-04-10T11:01:16.407Z,19.70
2018-04-10T11:02:24.474Z,19.99
2018-04-10T11:03:32.551Z,19.75
2018-04-10T11:04:40.601Z,19.70
2018-04-10T11:05:48.673Z,19.63
2018-04-10T11:06:56.767Z,19.72
2018-04-10T11:08:04.831Z,19.59
2018-04-10T11:09:12.894Z,19.70
2018-04-10T11:10:20.958Z,19.72
2018-04-10T11:11:29.035Z,19.57
2018-04-10T11:12:37.112Z,19.24
2018-04-10T11:13:45.184Z,19.15
2018-04-10T11:14:53.243Z,19.19
2018-04-10T11:16:01.291Z,19.45
2018-04-10T11:17:09.397Z,19.57
2018-04-10T11:18:17.462Z,19.66
2018-04-10T11:19:25.525Z,19.72
2018-04-10T11:20:33.596Z,19.90
2018-04-10T11:21:41.635Z,20.02
2018-04-10T11:22:49.730Z,20.18
2018-04-10T11:23:57.814Z,20.36
2018-04-10T11:25:05.895Z,20.39
2018-04-10T11:26:13.958Z,20.36
2018-04-10T11:27:22.018Z,20.12
2018-04-10T11:28:30.089Z,20.18
2018-04-10T11:29:38.154Z,20.44
2018-04-10T11:30:46.222Z,20.56
2018-04-10T11:31:54.308Z,20.73
2018-04-10T11:33:02.373Z,20.18
2018-04-10T11:34:10.450Z,20.15
2018-04-10T11:35:18.516Z,20.27
2018-04-10T11:36:26.577Z,20.46
2018-04-10T11:37:34.641Z,20.71
2018-04-10T11:38:42.726Z,20.33
2018-04-10T11:39:50.783Z,20.49
2018-04-10T11:40:58.867Z,20.71
2018-04-10T11:42:06.936Z,20.46
2018-04-10T11:43:15.024Z,20.56
2018-04-10T11:44:23.084Z,20.68
2018-04-10T11:45:31.122Z,20.60
2018-04-10T11:46:39.222Z,20.52
2018-04-10T11:47:47.289Z,20.14
2018-04-10T11:48:55.359Z,20.21
2018-04-10T11:50:03.448Z,20.27
2018-04-10T11:51:11.493Z,20.49
2018-04-10T11:52:19.597Z,20.48
2018-04-10T11:53:27.665Z,20.22
2018-04-10T11:54:35.720Z,20.18
2018-04-10T11:55:43.785Z,20.26
2018-04-10T11:56:51.851Z,20.33
2018-04-10T11:57:59.926Z,20.29
2018-04-10T11:59:08.000Z,20.24
2018-04-10T12:00:16.122Z,20.18
2018-04-10T12:01:24.148Z,20.12
2018-04-10T12:02:32.220Z,20.30
2018-04-10T12:03:40.284Z,20.42
2018-04-10T12:04:48.364Z,20.85
2018-04-10T12:05:56.425Z,21.20
2018-04-10T12:07:04.499Z,21.40
2018-04-10T12:08:12.626Z,21.53
2018-04-10T12:09:20.646Z,21.51
2018-04-10T12:10:28.731Z,21.54
2018-04-10T12:11:36.792Z,21.51
2018-04-10T12:12:44.855Z,21.54
2018-04-10T12:13:52.932Z,21.44
2018-04-10T12:15:00.979Z,21.44
2018-04-10T12:16:09.138Z,21.33
2018-04-10T12:17:17.180Z,21.30
2018-04-10T12:18:25.215Z,21.07
2018-04-10T12:19:33.291Z,21.08
2018-04-10T12:20:41.332Z,20.74
2018-04-10T12:21:49.423Z,20.58
2018-04-10T12:22:57.514Z,20.50
2018-04-10T12:24:05.577Z,20.27
2018-04-10T12:25:13.639Z,20.24
2018-04-10T12:26:21.692Z,20.36
2018-04-10T12:27:29.794Z,20.52
2018-04-10T12:28:37.863Z,20.80
2018-04-10T12:29:45.940Z,20.90
2018-04-10T12:30:54.007Z,20.83
2018-04-10T12:32:05.172Z,20.89
2018-04-10T12:33:10.153Z,21.04
2018-04-10T12:34:18.196Z,21.33
2018-04-10T12:35:26.286Z,21.53
2018-04-10T12:36:34.353Z,21.66
2018-04-10T12:37:42.427Z,21.75
2018-04-10T12:38:50.503Z,21.62
2018-04-10T12:39:58.563Z,21.40
2018-04-10T12:41:06.652Z,21.17
2018-04-10T12:42:14.700Z,21.00
2018-04-10T12:43:22.791Z,20.95
2018-04-10T12:44:30.833Z,21.01
2018-04-10T12:45:38.919Z,21.30
2018-04-10T12:46:46.996Z,21.50
2018-04-10T12:47:55.074Z,21.74
2018-04-10T12:49:03.143Z,21.63
2018-04-10T12:50:11.189Z,21.69
2018-04-10T12:51:19.280Z,21.56
2018-04-10T12:52:27.352Z,21.32
2018-04-10T12:53:35.430Z,21.51
2018-04-10T12:54:43.497Z,21.66
2018-04-10T12:55:51.555Z,21.72
2018-04-10T12:56:59.642Z,21.70
2018-04-10T12:58:07.725Z,21.66
2018-04-10T12:59:15.776Z,21.85
2018-04-10T13:00:23.864Z,21.89
2018-04-10T13:01:31.912Z,21.89
2018-04-10T13:02:39.994Z,21.97
2018-04-10T13:03:48.061Z,22.06
2018-04-10T13:04:56.152Z,22.06
2018-04-10T13:06:04.212Z,22.10
2018-04-10T13:07:12.296Z,22.26
2018-04-10T13:08:20.356Z,22.22
2018-04-10T13:09:28.428Z,22.06
2018-04-10T13:10:36.494Z,21.97
2018-04-10T13:11:44.567Z,21.92
2018-04-10T13:12:52.647Z,21.92
2018-04-10T13:14:00.791Z,21.88
2018-04-10T13:15:08.779Z,21.62
2018-04-10T13:16:16.861Z,21.54
2018-04-10T13:17:24.964Z,21.30
2018-04-10T13:18:32.992Z,20.98
2018-04-10T13:19:41.049Z,20.95
2018-04-10T13:20:49.155Z,21.01
2018-04-10T13:21:57.218Z,20.95
2018-04-10T13:23:05.300Z,20.73
2018-04-10T13:24:13.365Z,20.67
2018-04-10T13:25:21.410Z,20.68
2018-04-10T13:26:29.504Z,20.86
2018-04-10T13:27:37.580Z,20.90
2018-04-10T13:28:45.641Z,20.78
2018-04-10T13:29:53.722Z,20.82
2018-04-10T13:31:01.799Z,20.40
2018-04-10T13:32:09.858Z,20.11
2018-04-10T13:33:17.914Z,19.92
2018-04-10T13:34:26.005Z,19.87
2018-04-10T13:35:34.084Z,19.74
2018-04-10T13:36:42.141Z,19.66
2018-04-10T13:37:50.236Z,19.63
2018-04-10T13:38:58.298Z,19.59
2018-04-10T13:40:06.355Z,19.57
2018-04-10T13:41:14.449Z,19.56
2018-04-10T13:42:22.495Z,19.48
2018-04-10T13:43:30.578Z,19.47
2018-04-10T13:44:38.636Z,19.47
2018-04-10T13:45:46.703Z,19.45
2018-04-10T13:46:54.761Z,19.45
2018-04-10T13:48:02.856Z,19.45
2018-04-10T13:49:10.908Z,19.44
2018-04-10T13:50:18.991Z,19.45
2018-04-10T13:51:27.058Z,19.47
2018-04-10T13:52:35.125Z,19.62
2018-04-10T13:53:43.203Z,19.71
2018-04-10T13:54:51.238Z,19.85
2018-04-10T13:55:59.335Z,19.72
2018-04-10T13:57:07.400Z,19.72
2018-04-10T13:58:15.482Z,19.72
2018-04-10T13:59:23.549Z,19.66
2018-04-10T14:00:31.603Z,19.63
2018-04-10T14:01:39.684Z,19.45
2018-04-10T14:02:47.761Z,19.53
2018-04-10T14:03:55.836Z,19.52
2018-04-10T14:05:03.891Z,19.53
2018-04-10T14:06:11.982Z,19.52
2018-04-10T14:07:20.035Z,19.44
2018-04-10T14:08:28.105Z,19.44
2018-04-10T14:09:36.187Z,19.29
2018-04-10T14:10:44.248Z,19.27
2018-04-10T14:11:52.349Z,18.98
2018-04-10T14:13:00.392Z,19.07
2018-04-10T14:14:08.456Z,19.05
2018-04-10T14:15:16.532Z,19.11
2018-04-10T14:16:24.603Z,19.22
2018-04-10T14:17:32.673Z,19.15
2018-04-10T14:18:40.739Z,19.11
2018-04-10T14:19:48.815Z,19.09
2018-04-10T14:20:56.868Z,18.97
2018-04-10T14:22:04.942Z,18.92
2018-04-10T14:23:13.013Z,18.89
2018-04-10T14:24:21.059Z,18.82
2018-04-10T14:25:29.161Z,18.76
2018-04-10T14:26:37.227Z,18.67
2018-04-10T14:27:45.304Z,18.76
2018-04-10T14:28:53.360Z,18.71
2018-04-10T14:30:01.416Z,18.66
2018-04-10T14:31:09.504Z,18.43
2018-04-10T14:32:17.572Z,18.48
2018-04-10T14:33:25.654Z,18.28
2018-04-10T14:34:33.716Z,18.24
2018-04-10T14:35:41.774Z,18.19
2018-04-10T14:36:49.888Z,18.05
2018-04-10T14:37:57.925Z,18.02
2018-04-10T14:39:05.995Z,17.75
2018-04-10T14:40:14.072Z,17.72
2018-04-10T14:41:22.148Z,17.46
2018-04-10T14:42:30.217Z,17.49
2018-04-10T14:43:38.292Z,17.34
2018-04-10T14:44:46.360Z,17.28
2018-04-10T14:45:54.415Z,17.14
2018-04-10T14:47:02.543Z,17.10
2018-04-10T14:48:10.553Z,17.12